sensor_id;sensor_type;location;lat;lon;timestamp;pressure;altitude;pressure_sealevel;temperature;humidity
79366;BME280;68833;53.160;17.920;2024-03-07T00:00:28;101991.88;;;0.72;75.59
79366;BME280;68833;53.160;17.920;2024-03-07T00:03:15;101988.05;;;0.69;75.36
79366;BME280;68833;53.160;17.920;2024-03-07T00:05:43;101989.12;;;0.66;75.53
79366;BME280;68833;53.160;17.920;2024-03-07T00:08:15;101990.60;;;0.64;75.58
79366;BME280;68833;53.160;17.920;2024-03-07T00:10:42;101988.91;;;0.62;75.70
79366;BME280;68833;53.160;17.920;2024-03-07T00:13:10;101990.96;;;0.61;75.61
79366;BME280;68833;53.160;17.920;2024-03-07T00:15:37;101988.88;;;0.61;75.72
79366;BME280;68833;53.160;17.920;2024-03-07T00:18:03;101989.18;;;0.60;75.69
79366;BME280;68833;53.160;17.920;2024-03-07T00:20:31;101985.99;;;0.59;75.78
79366;BME280;68833;53.160;17.920;2024-03-07T00:22:58;101984.19;;;0.61;75.70
79366;BME280;68833;53.160;17.920;2024-03-07T00:25:25;101988.80;;;0.60;75.52
79366;BME280;68833;53.160;17.920;2024-03-07T00:27:52;101989.44;;;0.59;75.73
79366;BME280;68833;53.160;17.920;2024-03-07T00:30:19;101988.28;;;0.57;75.80
79366;BME280;68833;53.160;17.920;2024-03-07T00:32:47;101986.41;;;0.54;75.90
79366;BME280;68833;53.160;17.920;2024-03-07T00:35:13;101988.63;;;0.54;75.70
79366;BME280;68833;53.160;17.920;2024-03-07T00:37:40;101990.23;;;0.54;75.75
79366;BME280;68833;53.160;17.920;2024-03-07T00:40:08;101986.61;;;0.54;75.85
79366;BME280;68833;53.160;17.920;2024-03-07T00:42:37;101987.97;;;0.54;75.60
79366;BME280;68833;53.160;17.920;2024-03-07T00:45:06;101986.65;;;0.52;75.75
79366;BME280;68833;53.160;17.920;2024-03-07T00:47:33;101988.17;;;0.51;76.03
79366;BME280;68833;53.160;17.920;2024-03-07T00:50:00;101986.72;;;0.50;75.84
79366;BME280;68833;53.160;17.920;2024-03-07T00:52:27;101985.28;;;0.48;76.05
79366;BME280;68833;53.160;17.920;2024-03-07T00:54:54;101986.00;;;0.46;75.91
79366;BME280;68833;53.160;17.920;2024-03-07T00:57:20;101987.67;;;0.45;75.75
79366;BME280;68833;53.160;17.920;2024-03-07T00:59:46;101985.75;;;0.44;76.08
79366;BME280;68833;53.160;17.920;2024-03-07T01:02:14;101985.86;;;0.43;75.92
79366;BME280;68833;53.160;17.920;2024-03-07T01:04:46;101985.84;;;0.43;76.05
79366;BME280;68833;53.160;17.920;2024-03-07T01:07:13;101984.94;;;0.42;76.11
79366;BME280;68833;53.160;17.920;2024-03-07T01:09:39;101988.98;;;0.40;75.95
79366;BME280;68833;53.160;17.920;2024-03-07T01:12:05;101987.81;;;0.35;76.15
79366;BME280;68833;53.160;17.920;2024-03-07T01:14:32;101987.82;;;0.31;76.23
79366;BME280;68833;53.160;17.920;2024-03-07T01:17:00;101987.63;;;0.28;76.17
79366;BME280;68833;53.160;17.920;2024-03-07T01:19:27;101982.08;;;0.24;76.35
79366;BME280;68833;53.160;17.920;2024-03-07T01:21:53;101981.92;;;0.22;76.22
79366;BME280;68833;53.160;17.920;2024-03-07T01:24:20;101981.34;;;0.20;76.27
79366;BME280;68833;53.160;17.920;2024-03-07T01:26:46;101979.88;;;0.18;76.48
79366;BME280;68833;53.160;17.920;2024-03-07T01:29:13;101981.00;;;0.17;76.30
79366;BME280;68833;53.160;17.920;2024-03-07T01:31:40;101984.33;;;0.15;76.46
79366;BME280;68833;53.160;17.920;2024-03-07T01:34:06;101980.21;;;0.12;76.42
79366;BME280;68833;53.160;17.920;2024-03-07T01:36:32;101980.28;;;0.10;76.22
79366;BME280;68833;53.160;17.920;2024-03-07T01:39:01;101981.42;;;0.09;76.84
79366;BME280;68833;53.160;17.920;2024-03-07T01:41:29;101980.84;;;0.08;76.61
79366;BME280;68833;53.160;17.920;2024-03-07T01:43:57;101981.02;;;0.08;76.77
79366;BME280;68833;53.160;17.920;2024-03-07T01:46:23;101979.52;;;0.09;76.91
79366;BME280;68833;53.160;17.920;2024-03-07T01:48:50;101977.14;;;0.09;76.91
79366;BME280;68833;53.160;17.920;2024-03-07T01:51:17;101978.70;;;0.10;76.78
79366;BME280;68833;53.160;17.920;2024-03-07T01:53:44;101978.04;;;0.10;76.70
79366;BME280;68833;53.160;17.920;2024-03-07T01:56:11;101978.91;;;0.11;76.65
79366;BME280;68833;53.160;17.920;2024-03-07T01:58:38;101976.42;;;0.09;76.88
79366;BME280;68833;53.160;17.920;2024-03-07T02:01:05;101978.08;;;0.08;76.76
79366;BME280;68833;53.160;17.920;2024-03-07T02:16:08;101972.13;;;-0.06;76.71
79366;BME280;68833;53.160;17.920;2024-03-07T02:18:35;101972.70;;;-0.06;77.07
79366;BME280;68833;53.160;17.920;2024-03-07T02:21:07;101972.93;;;-0.04;77.20
79366;BME280;68833;53.160;17.920;2024-03-07T02:23:34;101971.52;;;-0.02;77.09
79366;BME280;68833;53.160;17.920;2024-03-07T02:26:01;101970.54;;;-0.01;76.93
79366;BME280;68833;53.160;17.920;2024-03-07T02:28:27;101969.29;;;-0.02;76.86
79366;BME280;68833;53.160;17.920;2024-03-07T02:30:53;101968.36;;;-0.03;76.77
79366;BME280;68833;53.160;17.920;2024-03-07T02:33:20;101968.10;;;-0.04;76.85
79366;BME280;68833;53.160;17.920;2024-03-07T02:35:46;101966.41;;;-0.07;76.98
79366;BME280;68833;53.160;17.920;2024-03-07T02:38:12;101970.20;;;-0.07;77.09
79366;BME280;68833;53.160;17.920;2024-03-07T02:40:38;101965.58;;;-0.06;76.94
79366;BME280;68833;53.160;17.920;2024-03-07T02:43:05;101965.29;;;-0.05;77.10
79366;BME280;68833;53.160;17.920;2024-03-07T02:45:31;101970.77;;;-0.03;77.27
79366;BME280;68833;53.160;17.920;2024-03-07T02:47:57;101973.96;;;-0.01;77.03
79366;BME280;68833;53.160;17.920;2024-03-07T02:50:24;101973.95;;;-0.02;77.18
79366;BME280;68833;53.160;17.920;2024-03-07T02:52:50;101975.45;;;-0.03;77.09
79366;BME280;68833;53.160;17.920;2024-03-07T02:55:18;101972.89;;;-0.05;77.30
79366;BME280;68833;53.160;17.920;2024-03-07T02:57:45;101973.69;;;-0.09;77.05
79366;BME280;68833;53.160;17.920;2024-03-07T03:00:14;101974.70;;;-0.13;76.84
79366;BME280;68833;53.160;17.920;2024-03-07T03:02:49;101972.31;;;-0.16;76.88
79366;BME280;68833;53.160;17.920;2024-03-07T03:05:16;101972.48;;;-0.15;77.30
79366;BME280;68833;53.160;17.920;2024-03-07T03:07:42;101970.31;;;-0.14;77.60
79366;BME280;68833;53.160;17.920;2024-03-07T03:10:21;101970.16;;;-0.14;77.35
79366;BME280;68833;53.160;17.920;2024-03-07T03:12:52;101973.19;;;-0.15;77.17
79366;BME280;68833;53.160;17.920;2024-03-07T03:15:20;101972.36;;;-0.15;77.34
79366;BME280;68833;53.160;17.920;2024-03-07T03:17:47;101969.07;;;-0.15;77.18
79366;BME280;68833;53.160;17.920;2024-03-07T03:20:13;101978.33;;;-0.16;77.56
79366;BME280;68833;53.160;17.920;2024-03-07T03:22:52;101980.17;;;-0.18;77.12
79366;BME280;68833;53.160;17.920;2024-03-07T03:25:22;101981.39;;;-0.20;77.14
79366;BME280;68833;53.160;17.920;2024-03-07T03:27:49;101980.81;;;-0.24;77.43
79366;BME280;68833;53.160;17.920;2024-03-07T03:30:16;101980.58;;;-0.26;77.35
79366;BME280;68833;53.160;17.920;2024-03-07T03:32:45;101982.02;;;-0.25;77.21
79366;BME280;68833;53.160;17.920;2024-03-07T03:35:12;101979.97;;;-0.24;77.08
79366;BME280;68833;53.160;17.920;2024-03-07T03:37:45;101981.02;;;-0.24;77.49
79366;BME280;68833;53.160;17.920;2024-03-07T03:40:12;101981.03;;;-0.24;77.30
79366;BME280;68833;53.160;17.920;2024-03-07T03:42:40;101976.73;;;-0.23;76.93
79366;BME280;68833;53.160;17.920;2024-03-07T03:45:09;101976.67;;;-0.24;77.49
79366;BME280;68833;53.160;17.920;2024-03-07T03:47:41;101973.66;;;-0.26;77.16
79366;BME280;68833;53.160;17.920;2024-03-07T03:50:10;101977.47;;;-0.29;77.38
79366;BME280;68833;53.160;17.920;2024-03-07T03:52:37;101978.81;;;-0.32;77.74
79366;BME280;68833;53.160;17.920;2024-03-07T03:55:04;101980.23;;;-0.35;77.45
79366;BME280;68833;53.160;17.920;2024-03-07T03:57:39;101976.21;;;-0.36;77.27
79366;BME280;68833;53.160;17.920;2024-03-07T04:00:07;101975.63;;;-0.34;78.01
79366;BME280;68833;53.160;17.920;2024-03-07T04:05:09;101975.13;;;-0.30;77.08
79366;BME280;68833;53.160;17.920;2024-03-07T04:07:36;101972.00;;;-0.30;77.48
79366;BME280;68833;53.160;17.920;2024-03-07T04:10:04;101969.66;;;-0.32;77.70
79366;BME280;68833;53.160;17.920;2024-03-07T04:12:37;101969.28;;;-0.33;77.67
79366;BME280;68833;53.160;17.920;2024-03-07T04:17:34;101965.43;;;-0.37;78.10
79366;BME280;68833;53.160;17.920;2024-03-07T04:20:02;101968.38;;;-0.37;77.99
79366;BME280;68833;53.160;17.920;2024-03-07T04:22:35;101969.07;;;-0.37;77.83
79366;BME280;68833;53.160;17.920;2024-03-07T04:25:01;101972.80;;;-0.35;77.80
79366;BME280;68833;53.160;17.920;2024-03-07T04:27:29;101970.64;;;-0.37;77.63
79366;BME280;68833;53.160;17.920;2024-03-07T04:29:57;101971.19;;;-0.39;78.04
79366;BME280;68833;53.160;17.920;2024-03-07T04:32:25;101974.92;;;-0.40;77.80
79366;BME280;68833;53.160;17.920;2024-03-07T04:34:52;101975.29;;;-0.43;77.62
79366;BME280;68833;53.160;17.920;2024-03-07T04:37:20;101980.50;;;-0.45;78.02
79366;BME280;68833;53.160;17.920;2024-03-07T04:39:48;101977.67;;;-0.47;77.86
79366;BME280;68833;53.160;17.920;2024-03-07T04:42:16;101979.17;;;-0.47;78.18
79366;BME280;68833;53.160;17.920;2024-03-07T04:44:44;101978.85;;;-0.47;78.05
79366;BME280;68833;53.160;17.920;2024-03-07T04:47:12;101979.49;;;-0.48;77.60
79366;BME280;68833;53.160;17.920;2024-03-07T04:49:40;101981.50;;;-0.49;77.56
79366;BME280;68833;53.160;17.920;2024-03-07T04:52:10;101981.63;;;-0.50;77.95
79366;BME280;68833;53.160;17.920;2024-03-07T04:54:38;101983.62;;;-0.52;78.22
79366;BME280;68833;53.160;17.920;2024-03-07T04:57:06;101983.34;;;-0.53;78.34
79366;BME280;68833;53.160;17.920;2024-03-07T04:59:34;101983.04;;;-0.59;78.05
79366;BME280;68833;53.160;17.920;2024-03-07T05:02:02;101988.56;;;-0.62;78.19
79366;BME280;68833;53.160;17.920;2024-03-07T05:04:30;101989.16;;;-0.63;78.05
79366;BME280;68833;53.160;17.920;2024-03-07T05:06:59;101990.27;;;-0.61;78.45
79366;BME280;68833;53.160;17.920;2024-03-07T05:09:27;101987.92;;;-0.61;78.32
79366;BME280;68833;53.160;17.920;2024-03-07T05:11:55;101991.92;;;-0.60;78.27
79366;BME280;68833;53.160;17.920;2024-03-07T05:14:23;101991.23;;;-0.60;78.16
79366;BME280;68833;53.160;17.920;2024-03-07T05:16:51;101997.41;;;-0.61;78.45
79366;BME280;68833;53.160;17.920;2024-03-07T05:19:35;101997.00;;;-0.62;78.30
79366;BME280;68833;53.160;17.920;2024-03-07T05:22:02;101996.25;;;-0.63;78.35
79366;BME280;68833;53.160;17.920;2024-03-07T05:24:33;101995.37;;;-0.66;78.14
79366;BME280;68833;53.160;17.920;2024-03-07T05:27:02;101996.89;;;-0.70;78.37
79366;BME280;68833;53.160;17.920;2024-03-07T05:29:32;101997.73;;;-0.70;78.67
79366;BME280;68833;53.160;17.920;2024-03-07T05:32:21;102001.06;;;-0.69;78.04
79366;BME280;68833;53.160;17.920;2024-03-07T05:34:52;102000.05;;;-0.69;78.58
79366;BME280;68833;53.160;17.920;2024-03-07T05:37:22;102003.96;;;-0.70;78.41
79366;BME280;68833;53.160;17.920;2024-03-07T05:39:55;102001.94;;;-0.69;78.25
79366;BME280;68833;53.160;17.920;2024-03-07T05:42:24;102003.80;;;-0.70;78.04
79366;BME280;68833;53.160;17.920;2024-03-07T05:44:54;102000.98;;;-0.71;78.17
79366;BME280;68833;53.160;17.920;2024-03-07T05:47:24;102003.64;;;-0.72;78.26
79366;BME280;68833;53.160;17.920;2024-03-07T05:49:53;102002.48;;;-0.74;78.30
79366;BME280;68833;53.160;17.920;2024-03-07T05:52:23;102004.34;;;-0.75;78.47
79366;BME280;68833;53.160;17.920;2024-03-07T05:54:52;102005.96;;;-0.74;78.71
79366;BME280;68833;53.160;17.920;2024-03-07T05:57:21;102007.86;;;-0.71;78.67
79366;BME280;68833;53.160;17.920;2024-03-07T05:59:51;102008.20;;;-0.68;78.33
79366;BME280;68833;53.160;17.920;2024-03-07T06:02:22;102009.90;;;-0.65;78.43
79366;BME280;68833;53.160;17.920;2024-03-07T06:04:52;102012.20;;;-0.64;78.62
79366;BME280;68833;53.160;17.920;2024-03-07T06:07:22;102014.52;;;-0.63;78.46
79366;BME280;68833;53.160;17.920;2024-03-07T06:09:52;102016.25;;;-0.63;78.71
79366;BME280;68833;53.160;17.920;2024-03-07T06:12:22;102018.58;;;-0.64;79.03
79366;BME280;68833;53.160;17.920;2024-03-07T06:14:51;102018.36;;;-0.65;78.83
79366;BME280;68833;53.160;17.920;2024-03-07T06:17:21;102021.25;;;-0.66;78.76
79366;BME280;68833;53.160;17.920;2024-03-07T06:19:51;102023.64;;;-0.63;78.41
79366;BME280;68833;53.160;17.920;2024-03-07T06:30:17;102030.84;;;-0.40;78.80
79366;BME280;68833;53.160;17.920;2024-03-07T06:32:45;102033.62;;;-0.40;78.37
79366;BME280;68833;53.160;17.920;2024-03-07T06:35:12;102038.48;;;-0.36;78.70
79366;BME280;68833;53.160;17.920;2024-03-07T06:37:39;102038.55;;;-0.32;78.52
79366;BME280;68833;53.160;17.920;2024-03-07T06:40:07;102043.21;;;-0.29;78.33
79366;BME280;68833;53.160;17.920;2024-03-07T06:42:37;102040.31;;;-0.26;78.52
79366;BME280;68833;53.160;17.920;2024-03-07T06:45:04;102044.34;;;-0.22;78.49
79366;BME280;68833;53.160;17.920;2024-03-07T06:47:32;102040.23;;;-0.18;78.29
79366;BME280;68833;53.160;17.920;2024-03-07T06:49:59;102037.33;;;-0.14;78.25
79366;BME280;68833;53.160;17.920;2024-03-07T06:52:26;102035.09;;;-0.11;78.53
79366;BME280;68833;53.160;17.920;2024-03-07T06:54:53;102039.15;;;-0.09;78.55
79366;BME280;68833;53.160;17.920;2024-03-07T06:57:20;102038.55;;;-0.08;78.53
79366;BME280;68833;53.160;17.920;2024-03-07T06:59:47;102041.40;;;-0.06;78.22
79366;BME280;68833;53.160;17.920;2024-03-07T07:02:14;102044.20;;;-0.03;78.62
79366;BME280;68833;53.160;17.920;2024-03-07T07:04:41;102045.61;;;0.01;78.30
79366;BME280;68833;53.160;17.920;2024-03-07T07:07:09;102044.26;;;0.05;78.43
79366;BME280;68833;53.160;17.920;2024-03-07T07:09:40;102043.45;;;0.09;78.43
79366;BME280;68833;53.160;17.920;2024-03-07T07:12:07;102046.63;;;0.13;78.62
79366;BME280;68833;53.160;17.920;2024-03-07T07:14:34;102045.77;;;0.17;78.37
79366;BME280;68833;53.160;17.920;2024-03-07T07:17:02;102045.80;;;0.21;78.49
79366;BME280;68833;53.160;17.920;2024-03-07T07:19:29;102049.23;;;0.23;78.40
79366;BME280;68833;53.160;17.920;2024-03-07T07:21:56;102049.58;;;0.26;78.25
79366;BME280;68833;53.160;17.920;2024-03-07T07:24:23;102051.08;;;0.28;78.34
79366;BME280;68833;53.160;17.920;2024-03-07T07:26:52;102049.56;;;0.32;77.98
79366;BME280;68833;53.160;17.920;2024-03-07T07:29:18;102050.05;;;0.38;77.65
79366;BME280;68833;53.160;17.920;2024-03-07T07:31:46;102050.29;;;0.42;77.74
79366;BME280;68833;53.160;17.920;2024-03-07T07:34:13;102048.25;;;0.46;77.77
79366;BME280;68833;53.160;17.920;2024-03-07T07:36:40;102049.52;;;0.51;78.28
79366;BME280;68833;53.160;17.920;2024-03-07T07:39:08;102050.24;;;0.55;77.77
79366;BME280;68833;53.160;17.920;2024-03-07T07:41:43;102048.86;;;0.58;78.02
79366;BME280;68833;53.160;17.920;2024-03-07T07:44:10;102049.52;;;0.61;77.70
79366;BME280;68833;53.160;17.920;2024-03-07T07:46:37;102046.88;;;0.63;77.63
79366;BME280;68833;53.160;17.920;2024-03-07T07:49:04;102047.79;;;0.64;77.51
79366;BME280;68833;53.160;17.920;2024-03-07T07:51:31;102046.67;;;0.69;77.73
79366;BME280;68833;53.160;17.920;2024-03-07T07:53:58;102046.62;;;0.74;77.40
79366;BME280;68833;53.160;17.920;2024-03-07T07:56:26;102047.11;;;0.80;77.27
79366;BME280;68833;53.160;17.920;2024-03-07T07:58:55;102045.15;;;0.86;77.32
79366;BME280;68833;53.160;17.920;2024-03-07T08:01:22;102044.07;;;0.92;77.22
79366;BME280;68833;53.160;17.920;2024-03-07T08:03:51;102040.17;;;0.96;77.55
79366;BME280;68833;53.160;17.920;2024-03-07T08:06:21;102040.80;;;1.02;77.45
79366;BME280;68833;53.160;17.920;2024-03-07T08:08:47;102039.41;;;1.06;77.35
79366;BME280;68833;53.160;17.920;2024-03-07T08:11:15;102041.21;;;1.10;77.00
79366;BME280;68833;53.160;17.920;2024-03-07T08:13:42;102039.86;;;1.14;77.26
79366;BME280;68833;53.160;17.920;2024-03-07T08:16:12;102036.28;;;1.19;76.89
79366;BME280;68833;53.160;17.920;2024-03-07T08:18:38;102035.23;;;1.25;76.41
79366;BME280;68833;53.160;17.920;2024-03-07T08:21:05;102030.79;;;1.33;76.31
79366;BME280;68833;53.160;17.920;2024-03-07T08:23:32;102029.19;;;1.39;76.20
79366;BME280;68833;53.160;17.920;2024-03-07T08:26:00;102031.02;;;1.48;76.00
79366;BME280;68833;53.160;17.920;2024-03-07T08:28:27;102025.96;;;1.55;75.88
79366;BME280;68833;53.160;17.920;2024-03-07T08:30:54;102026.88;;;1.63;75.46
79366;BME280;68833;53.160;17.920;2024-03-07T08:33:21;102026.53;;;1.70;75.51
79366;BME280;68833;53.160;17.920;2024-03-07T08:35:48;102021.09;;;1.76;74.60
79366;BME280;68833;53.160;17.920;2024-03-07T08:38:16;102021.59;;;1.82;74.56
79366;BME280;68833;53.160;17.920;2024-03-07T08:40:43;102023.25;;;1.89;74.25
79366;BME280;68833;53.160;17.920;2024-03-07T08:43:10;102021.83;;;1.95;73.95
79366;BME280;68833;53.160;17.920;2024-03-07T08:45:38;102023.98;;;2.00;73.70
79366;BME280;68833;53.160;17.920;2024-03-07T08:48:05;102024.28;;;2.06;74.14
79366;BME280;68833;53.160;17.920;2024-03-07T08:50:35;102025.70;;;2.14;74.19
79366;BME280;68833;53.160;17.920;2024-03-07T08:53:04;102027.91;;;2.25;74.31
79366;BME280;68833;53.160;17.920;2024-03-07T08:55:35;102026.16;;;2.36;73.91
79366;BME280;68833;53.160;17.920;2024-03-07T08:58:03;102028.49;;;2.45;72.75
79366;BME280;68833;53.160;17.920;2024-03-07T09:00:30;102027.48;;;2.53;73.01
79366;BME280;68833;53.160;17.920;2024-03-07T09:02:59;102024.40;;;2.62;72.68
79366;BME280;68833;53.160;17.920;2024-03-07T09:05:26;102024.13;;;2.71;72.79
79366;BME280;68833;53.160;17.920;2024-03-07T09:07:54;102025.34;;;2.79;72.41
79366;BME280;68833;53.160;17.920;2024-03-07T09:10:21;102023.56;;;2.86;71.95
79366;BME280;68833;53.160;17.920;2024-03-07T09:12:50;102027.20;;;2.94;71.43
79366;BME280;68833;53.160;17.920;2024-03-07T09:15:18;102027.92;;;3.02;71.90
79366;BME280;68833;53.160;17.920;2024-03-07T09:17:48;102028.73;;;3.09;70.61
79366;BME280;68833;53.160;17.920;2024-03-07T09:20:16;102027.27;;;3.15;70.83
79366;BME280;68833;53.160;17.920;2024-03-07T09:22:48;102029.92;;;3.21;70.07
79366;BME280;68833;53.160;17.920;2024-03-07T09:25:17;102032.92;;;3.26;69.83
79366;BME280;68833;53.160;17.920;2024-03-07T09:27:45;102028.59;;;3.30;69.46
79366;BME280;68833;53.160;17.920;2024-03-07T09:30:12;102026.77;;;3.33;69.99
79366;BME280;68833;53.160;17.920;2024-03-07T09:32:41;102027.92;;;3.39;69.85
79366;BME280;68833;53.160;17.920;2024-03-07T09:35:09;102031.59;;;3.44;68.77
79366;BME280;68833;53.160;17.920;2024-03-07T09:37:41;102030.05;;;3.49;68.85
79366;BME280;68833;53.160;17.920;2024-03-07T09:40:09;102031.08;;;3.52;68.44
79366;BME280;68833;53.160;17.920;2024-03-07T09:42:46;102032.86;;;3.58;68.57
79366;BME280;68833;53.160;17.920;2024-03-07T09:45:16;102033.71;;;3.70;68.09
79366;BME280;68833;53.160;17.920;2024-03-07T09:47:46;102034.91;;;3.79;67.93
79366;BME280;68833;53.160;17.920;2024-03-07T09:50:18;102033.66;;;3.86;67.93
79366;BME280;68833;53.160;17.920;2024-03-07T09:52:55;102034.30;;;3.94;67.31
79366;BME280;68833;53.160;17.920;2024-03-07T09:55:23;102037.55;;;4.01;67.06
79366;BME280;68833;53.160;17.920;2024-03-07T09:57:51;102039.11;;;4.05;66.70
79366;BME280;68833;53.160;17.920;2024-03-07T10:00:20;102043.45;;;4.09;67.18
79366;BME280;68833;53.160;17.920;2024-03-07T10:02:56;102034.75;;;4.14;66.47
79366;BME280;68833;53.160;17.920;2024-03-07T10:05:27;102038.05;;;4.18;65.90
79366;BME280;68833;53.160;17.920;2024-03-07T10:07:54;102035.38;;;4.21;65.54
79366;BME280;68833;53.160;17.920;2024-03-07T10:10:25;102034.86;;;4.26;65.64
79366;BME280;68833;53.160;17.920;2024-03-07T10:12:52;102036.59;;;4.31;65.75
79366;BME280;68833;53.160;17.920;2024-03-07T10:15:29;102032.94;;;4.34;64.85
79366;BME280;68833;53.160;17.920;2024-03-07T10:17:57;102030.57;;;4.37;64.00
79366;BME280;68833;53.160;17.920;2024-03-07T10:20:24;102026.86;;;4.39;64.72
79366;BME280;68833;53.160;17.920;2024-03-07T10:22:51;102022.84;;;4.44;64.19
79366;BME280;68833;53.160;17.920;2024-03-07T10:25:20;102026.23;;;4.50;63.67
79366;BME280;68833;53.160;17.920;2024-03-07T10:27:51;102020.65;;;4.55;63.86
79366;BME280;68833;53.160;17.920;2024-03-07T10:30:18;102021.31;;;4.59;63.97
79366;BME280;68833;53.160;17.920;2024-03-07T10:32:52;102022.85;;;4.63;63.40
79366;BME280;68833;53.160;17.920;2024-03-07T10:35:22;102023.88;;;4.67;63.15
79366;BME280;68833;53.160;17.920;2024-03-07T10:37:53;102019.84;;;4.71;63.79
79366;BME280;68833;53.160;17.920;2024-03-07T10:40:22;102013.54;;;4.75;62.99
79366;BME280;68833;53.160;17.920;2024-03-07T10:42:49;102010.36;;;4.78;62.91
79366;BME280;68833;53.160;17.920;2024-03-07T10:45:19;102014.90;;;4.83;63.11
79366;BME280;68833;53.160;17.920;2024-03-07T10:47:57;102012.58;;;4.87;61.78
79366;BME280;68833;53.160;17.920;2024-03-07T10:50:41;102011.08;;;4.88;61.81
79366;BME280;68833;53.160;17.920;2024-03-07T10:53:24;102013.77;;;4.91;62.03
79366;BME280;68833;53.160;17.920;2024-03-07T10:59:01;102013.63;;;5.02;62.64
79366;BME280;68833;53.160;17.920;2024-03-07T11:03:56;102008.81;;;5.09;61.72
79366;BME280;68833;53.160;17.920;2024-03-07T11:06:25;102003.64;;;5.10;62.25
79366;BME280;68833;53.160;17.920;2024-03-07T11:08:52;102003.61;;;5.14;61.90
79366;BME280;68833;53.160;17.920;2024-03-07T11:11:19;101999.74;;;5.18;61.57
79366;BME280;68833;53.160;17.920;2024-03-07T11:13:46;102002.80;;;5.21;61.57
79366;BME280;68833;53.160;17.920;2024-03-07T11:16:13;102000.98;;;5.24;61.01
79366;BME280;68833;53.160;17.920;2024-03-07T11:18:40;101999.11;;;5.26;60.61
79366;BME280;68833;53.160;17.920;2024-03-07T11:21:40;101994.14;;;5.28;60.91
79366;BME280;68833;53.160;17.920;2024-03-07T11:24:06;101997.65;;;5.34;61.26
79366;BME280;68833;53.160;17.920;2024-03-07T11:26:33;101995.84;;;5.37;60.33
79366;BME280;68833;53.160;17.920;2024-03-07T11:28:59;101994.52;;;5.39;60.69
79366;BME280;68833;53.160;17.920;2024-03-07T11:31:26;101991.98;;;5.42;60.28
79366;BME280;68833;53.160;17.920;2024-03-07T11:34:16;101988.41;;;5.44;60.88
79366;BME280;68833;53.160;17.920;2024-03-07T11:36:46;101986.59;;;5.47;60.32
79366;BME280;68833;53.160;17.920;2024-03-07T11:39:44;101984.89;;;5.49;59.68
79366;BME280;68833;53.160;17.920;2024-03-07T11:42:28;101977.17;;;5.47;59.91
79366;BME280;68833;53.160;17.920;2024-03-07T11:44:58;101978.20;;;5.46;59.91
79366;BME280;68833;53.160;17.920;2024-03-07T11:47:25;101978.43;;;5.48;60.06
79366;BME280;68833;53.160;17.920;2024-03-07T11:49:55;101973.36;;;5.48;59.72
79366;BME280;68833;53.160;17.920;2024-03-07T11:52:24;101971.32;;;5.49;59.63
79366;BME280;68833;53.160;17.920;2024-03-07T11:54:52;101969.45;;;5.51;59.85
79366;BME280;68833;53.160;17.920;2024-03-07T11:57:19;101963.64;;;5.54;59.89
79366;BME280;68833;53.160;17.920;2024-03-07T11:59:47;101963.56;;;5.57;58.68
79366;BME280;68833;53.160;17.920;2024-03-07T12:02:18;101966.08;;;5.60;58.78
79366;BME280;68833;53.160;17.920;2024-03-07T12:04:48;101958.23;;;5.60;58.77
79366;BME280;68833;53.160;17.920;2024-03-07T12:07:16;101960.04;;;5.62;59.32
79366;BME280;68833;53.160;17.920;2024-03-07T12:09:49;101954.88;;;5.64;58.96
79366;BME280;68833;53.160;17.920;2024-03-07T12:12:20;101952.68;;;5.66;58.64
79366;BME280;68833;53.160;17.920;2024-03-07T12:14:55;101954.55;;;5.70;59.11
79366;BME280;68833;53.160;17.920;2024-03-07T12:17:22;101950.74;;;5.71;58.96
79366;BME280;68833;53.160;17.920;2024-03-07T12:19:50;101952.21;;;5.73;58.80
79366;BME280;68833;53.160;17.920;2024-03-07T12:22:19;101945.81;;;5.75;58.39
79366;BME280;68833;53.160;17.920;2024-03-07T12:25:02;101940.63;;;5.76;58.41
79366;BME280;68833;53.160;17.920;2024-03-07T12:27:29;101939.26;;;5.77;57.66
79366;BME280;68833;53.160;17.920;2024-03-07T12:29:55;101939.94;;;5.77;58.79
79366;BME280;68833;53.160;17.920;2024-03-07T12:32:23;101937.91;;;5.79;59.21
79366;BME280;68833;53.160;17.920;2024-03-07T12:34:50;101931.20;;;5.81;58.97
79366;BME280;68833;53.160;17.920;2024-03-07T12:37:18;101928.52;;;5.85;58.44
79366;BME280;68833;53.160;17.920;2024-03-07T12:39:49;101930.84;;;5.87;57.62
79366;BME280;68833;53.160;17.920;2024-03-07T12:42:27;101925.77;;;5.87;57.41
79366;BME280;68833;53.160;17.920;2024-03-07T12:52:39;101919.16;;;5.92;58.87
79366;BME280;68833;53.160;17.920;2024-03-07T12:55:07;101915.16;;;5.94;58.48
79366;BME280;68833;53.160;17.920;2024-03-07T12:57:34;101912.28;;;5.96;58.13
79366;BME280;68833;53.160;17.920;2024-03-07T13:00:02;101910.61;;;5.98;57.89
79366;BME280;68833;53.160;17.920;2024-03-07T13:02:39;101909.86;;;6.02;57.67
79366;BME280;68833;53.160;17.920;2024-03-07T13:05:06;101906.27;;;6.04;57.26
79366;BME280;68833;53.160;17.920;2024-03-07T13:07:34;101897.39;;;6.05;57.62
79366;BME280;68833;53.160;17.920;2024-03-07T13:10:01;101902.83;;;6.06;57.76
79366;BME280;68833;53.160;17.920;2024-03-07T13:12:28;101897.59;;;6.06;57.66
79366;BME280;68833;53.160;17.920;2024-03-07T13:14:58;101899.86;;;6.06;57.59
79366;BME280;68833;53.160;17.920;2024-03-07T13:17:26;101900.20;;;6.05;57.60
79366;BME280;68833;53.160;17.920;2024-03-07T13:19:53;101893.17;;;6.04;57.07
79366;BME280;68833;53.160;17.920;2024-03-07T13:22:26;101895.84;;;6.05;56.86
79366;BME280;68833;53.160;17.920;2024-03-07T13:24:54;101891.66;;;6.05;56.82
79366;BME280;68833;53.160;17.920;2024-03-07T13:27:21;101890.80;;;6.06;56.65
79366;BME280;68833;53.160;17.920;2024-03-07T13:29:54;101887.14;;;6.06;56.49
79366;BME280;68833;53.160;17.920;2024-03-07T13:32:21;101885.25;;;6.07;56.64